Time;durP1;ratioP1;P1;durP2;ratioP2;P2;SDS_P1;SDS_P2;PMS_P1;PMS_P2;Temp;Humidity;BMP_temperature;BMP_pressure;BME280_temperature;BME280_humidity;BME280_pressure;Samples;Min_cycle;Max_cycle;Signal;HPM_P1;HPM_P2
2023/05/16 00:02:20;;;;;;;9.27;7.85;;;13.80;99.90;;;;;;5015372;28;20044;-64
2023/05/16 00:04:47;;;;;;;10.05;8.27;;;13.80;99.90;;;;;;5012632;28;20814;-64
2023/05/16 00:07:13;;;;;;;8.45;7.55;;;13.80;99.90;;;;;;5008188;28;20818;-65
2023/05/16 00:09:38;;;;;;;11.55;7.72;;;13.80;99.90;;;;;;5008544;28;20049;-65
2023/05/16 00:12:04;;;;;;;10.20;8.25;;;13.80;99.90;;;;;;5015491;28;20115;-65
2023/05/16 00:14:30;;;;;;;9.30;7.25;;;13.80;99.90;;;;;;5006372;28;20036;-65
2023/05/16 00:16:59;;;;;;;13.85;8.65;;;13.70;99.90;;;;;;5010847;28;20643;-65
2023/05/16 00:19:26;;;;;;;9.93;8.20;;;13.80;99.90;;;;;;4999482;28;20113;-65
2023/05/16 00:21:52;;;;;;;8.32;7.22;;;13.70;99.90;;;;;;5005011;28;20200;-65
2023/05/16 00:24:18;;;;;;;8.40;7.47;;;13.70;99.90;;;;;;5005697;28;20081;-68
2023/05/16 00:26:44;;;;;;;9.65;8.00;;;13.70;99.90;;;;;;5007795;28;20038;-65
2023/05/16 00:29:09;;;;;;;10.40;8.63;;;13.70;99.90;;;;;;5000876;28;20033;-64
2023/05/16 00:31:35;;;;;;;9.50;7.95;;;13.70;99.90;;;;;;5000055;28;20590;-64
2023/05/16 00:34:01;;;;;;;11.27;9.57;;;13.70;99.90;;;;;;5003878;28;20068;-65
2023/05/16 00:36:27;;;;;;;16.70;8.63;;;13.60;99.90;;;;;;4988474;28;20108;-65
2023/05/16 00:38:53;;;;;;;9.13;7.93;;;13.60;99.90;;;;;;5008681;28;20037;-65
2023/05/16 00:41:20;;;;;;;12.27;9.73;;;13.60;99.90;;;;;;5015512;28;20037;-63
2023/05/16 00:43:46;;;;;;;12.85;8.88;;;13.50;99.90;;;;;;5004020;28;20140;-63
2023/05/16 00:46:12;;;;;;;12.55;9.38;;;13.50;99.90;;;;;;4998429;28;20125;-63
2023/05/16 00:48:38;;;;;;;12.82;8.93;;;13.50;99.90;;;;;;4986362;28;20048;-65
2023/05/16 00:51:08;;;;;;;10.20;8.23;;;13.50;99.90;;;;;;5005961;28;20041;-65
2023/05/16 00:53:35;;;;;;;11.90;9.23;;;13.50;99.90;;;;;;5006871;28;20437;-65
2023/05/16 00:56:04;;;;;;;15.65;9.07;;;13.40;99.90;;;;;;4997035;28;20079;-65
2023/05/16 00:58:31;;;;;;;13.60;9.63;;;13.40;99.90;;;;;;5008961;28;20040;-65
2023/05/16 01:00:57;;;;;;;12.10;9.65;;;13.40;99.90;;;;;;4991561;28;20038;-65
2023/05/16 01:03:24;;;;;;;16.63;9.40;;;13.40;99.90;;;;;;4982134;28;20048;-63
2023/05/16 01:05:50;;;;;;;13.80;8.93;;;13.40;99.90;;;;;;4989723;28;20034;-64
2023/05/16 01:08:16;;;;;;;12.98;10.02;;;13.40;99.90;;;;;;4999405;28;20065;-63
2023/05/16 01:10:55;;;;;;;13.20;9.88;;;13.40;99.90;;;;;;5007339;28;20124;-65
2023/05/16 01:13:32;;;;;;;14.70;10.40;;;13.40;99.90;;;;;;4995052;28;20049;-64
2023/05/16 01:16:29;;;;;;;10.13;8.70;;;13.40;99.90;;;;;;5002797;28;20037;-65
2023/05/16 01:19:15;;;;;;;13.80;10.30;;;13.40;99.90;;;;;;4984171;28;20081;-65
2023/05/16 01:21:52;;;;;;;10.55;8.45;;;13.40;99.90;;;;;;5001160;28;20061;-64
2023/05/16 01:24:45;;;;;;;12.60;9.00;;;13.40;99.90;;;;;;5005748;28;20017;-65
2023/05/16 01:27:13;;;;;;;12.52;9.63;;;13.40;99.90;;;;;;5008853;28;20033;-65
2023/05/16 01:29:39;;;;;;;12.55;9.00;;;13.40;99.90;;;;;;4994630;28;20097;-65
2023/05/16 01:32:05;;;;;;;12.88;9.77;;;13.50;99.90;;;;;;4987130;28;20044;-65
2023/05/16 01:34:30;;;;;;;17.80;10.13;;;13.60;99.90;;;;;;4986857;28;20026;-65
2023/05/16 01:37:09;;;;;;;14.13;9.90;;;13.60;99.90;;;;;;4994321;28;20111;-66
2023/05/16 01:39:51;;;;;;;15.60;9.95;;;13.70;99.90;;;;;;5020716;28;20026;-65
2023/05/16 01:42:20;;;;;;;10.48;9.20;;;13.70;99.90;;;;;;5015425;28;20030;-66
2023/05/16 01:45:03;;;;;;;17.13;9.52;;;13.70;99.90;;;;;;5006113;28;20061;-65
2023/05/16 01:47:31;;;;;;;13.95;8.88;;;13.80;99.90;;;;;;5015676;28;20029;-65
2023/05/16 01:50:05;;;;;;;14.23;9.27;;;13.80;99.90;;;;;;4998238;28;20038;-65
2023/05/16 01:52:37;;;;;;;13.35;8.93;;;13.80;99.90;;;;;;4999620;28;20029;-65
2023/05/16 01:55:05;;;;;;;11.40;8.45;;;13.80;99.90;;;;;;5001121;28;20401;-65
2023/05/16 01:57:31;;;;;;;9.57;7.70;;;13.80;99.90;;;;;;5011930;28;20053;-65
2023/05/16 01:59:58;;;;;;;14.02;7.90;;;13.80;99.90;;;;;;4997098;28;20030;-66
2023/05/16 02:02:23;;;;;;;10.63;8.50;;;13.80;99.90;;;;;;5010883;28;20037;-66
2023/05/16 02:04:50;;;;;;;11.60;7.55;;;13.80;99.90;;;;;;5012159;28;20087;-65
2023/05/16 02:07:15;;;;;;;12.73;8.20;;;13.80;99.90;;;;;;5023105;28;20400;-65
2023/05/16 02:09:44;;;;;;;13.65;8.27;;;13.70;99.90;;;;;;4989729;28;20038;-65
2023/05/16 02:12:09;;;;;;;14.63;8.30;;;13.70;99.90;;;;;;5012534;28;20032;-65
2023/05/16 02:14:35;;;;;;;11.98;8.30;;;13.70;99.90;;;;;;5004296;28;20028;-65
2023/05/16 02:17:01;;;;;;;10.85;8.10;;;13.70;99.90;;;;;;4988771;28;20084;-65
2023/05/16 02:19:27;;;;;;;15.88;8.00;;;13.60;99.90;;;;;;5005779;28;20041;-65
2023/05/16 02:21:52;;;;;;;13.60;7.97;;;13.60;99.90;;;;;;5006730;28;20034;-65
2023/05/16 02:24:18;;;;;;;14.25;7.93;;;13.60;99.90;;;;;;5001108;28;20109;-65
2023/05/16 02:26:44;;;;;;;12.20;7.22;;;13.50;99.90;;;;;;4981354;28;20490;-65
2023/05/16 02:29:10;;;;;;;12.38;7.82;;;13.60;99.90;;;;;;4999107;28;20030;-65
2023/05/16 02:31:35;;;;;;;10.23;7.32;;;13.60;99.90;;;;;;5001636;28;20132;-65
2023/05/16 02:34:02;;;;;;;11.57;7.07;;;13.50;99.90;;;;;;5000968;28;20026;-65
2023/05/16 02:36:28;;;;;;;10.45;7.47;;;13.50;99.90;;;;;;4984391;28;20048;-65
2023/05/16 02:38:54;;;;;;;10.60;8.07;;;13.50;99.90;;;;;;5003571;28;20481;-66
2023/05/16 02:41:21;;;;;;;12.40;7.95;;;13.50;99.90;;;;;;4985957;28;20026;-64
2023/05/16 02:43:48;;;;;;;14.43;8.98;;;13.50;99.90;;;;;;4988197;28;20133;-65
2023/05/16 02:46:25;;;;;;;13.30;8.50;;;13.50;99.90;;;;;;5005011;28;20037;-65
2023/05/16 02:48:51;;;;;;;12.07;9.00;;;13.50;99.90;;;;;;4996827;28;20029;-66
2023/05/16 02:51:19;;;;;;;11.80;9.18;;;13.40;99.90;;;;;;5002865;28;20121;-65
2023/05/16 02:53:45;;;;;;;12.70;8.80;;;13.30;99.90;;;;;;4981196;28;20049;-66
2023/05/16 02:56:10;;;;;;;15.65;10.05;;;13.30;99.90;;;;;;4992973;28;20026;-65
2023/05/16 02:58:36;;;;;;;16.00;10.00;;;13.30;99.90;;;;;;4987093;28;20734;-63
2023/05/16 03:01:02;;;;;;;16.50;10.38;;;13.30;99.90;;;;;;4979042;28;20050;-63
2023/05/16 03:03:28;;;;;;;12.90;9.05;;;13.20;99.90;;;;;;4988614;28;20065;-63
2023/05/16 03:05:54;;;;;;;13.80;9.50;;;13.20;99.90;;;;;;5002419;28;20464;-63
2023/05/16 03:08:20;;;;;;;14.30;9.75;;;13.20;99.90;;;;;;4996272;28;20054;-63
2023/05/16 03:10:46;;;;;;;16.83;9.73;;;13.20;99.90;;;;;;4986717;28;20041;-63
2023/05/16 03:13:12;;;;;;;16.98;10.88;;;13.10;99.90;;;;;;4986179;28;20057;-63
2023/05/16 03:15:38;;;;;;;13.45;9.00;;;13.20;99.90;;;;;;4983261;28;20053;-63
2023/05/16 03:18:04;;;;;;;15.38;10.50;;;13.10;99.90;;;;;;5003191;28;20452;-63
2023/05/16 03:20:30;;;;;;;12.68;9.68;;;13.10;99.90;;;;;;4986046;28;20387;-63
2023/05/16 03:22:55;;;;;;;13.65;9.18;;;13.10;99.90;;;;;;4997131;28;20042;-63
2023/05/16 03:25:21;;;;;;;18.40;10.77;;;13.10;99.90;;;;;;4976697;28;20038;-63
2023/05/16 03:27:47;;;;;;;17.33;10.10;;;13.10;99.90;;;;;;5000008;28;20120;-62
2023/05/16 03:30:14;;;;;;;15.02;10.05;;;13.10;99.90;;;;;;4997645;28;20066;-63
2023/05/16 03:32:40;;;;;;;17.40;9.95;;;13.10;99.90;;;;;;4999137;28;20481;-63
2023/05/16 03:35:06;;;;;;;16.75;10.48;;;13.10;99.90;;;;;;4983896;28;20107;-64
2023/05/16 03:37:33;;;;;;;12.18;9.02;;;13.10;99.90;;;;;;4997294;28;20061;-63
2023/05/16 03:39:59;;;;;;;12.35;9.15;;;13.10;99.90;;;;;;4986113;28;20175;-63
2023/05/16 03:42:24;;;;;;;12.52;9.75;;;13.10;99.90;;;;;;4984847;28;20766;-63
2023/05/16 03:44:50;;;;;;;13.85;9.15;;;13.10;99.90;;;;;;4998269;28;20128;-63
2023/05/16 03:47:16;;;;;;;14.38;9.85;;;13.10;99.90;;;;;;5001426;28;20107;-62
2023/05/16 03:49:42;;;;;;;14.18;10.35;;;13.10;99.90;;;;;;4999104;28;20045;-63
2023/05/16 03:52:08;;;;;;;16.92;10.52;;;13.10;99.90;;;;;;4996864;28;20029;-63
2023/05/16 03:54:33;;;;;;;17.40;10.27;;;13.10;99.90;;;;;;4995413;28;20049;-63
2023/05/16 03:56:59;;;;;;;16.13;9.40;;;13.10;99.90;;;;;;4998087;28;20030;-63
2023/05/16 03:59:25;;;;;;;17.42;9.32;;;13.10;99.90;;;;;;4995247;28;20030;-63
2023/05/16 04:01:51;;;;;;;16.60;10.02;;;13.00;99.90;;;;;;4998544;28;20038;-63
2023/05/16 04:04:16;;;;;;;12.13;8.88;;;13.00;99.90;;;;;;4991440;28;20042;-63
2023/05/16 04:06:42;;;;;;;17.17;10.27;;;12.90;99.90;;;;;;4996650;28;20129;-63
2023/05/16 04:09:08;;;;;;;15.13;9.10;;;12.90;99.90;;;;;;5000097;28;20053;-63
2023/05/16 04:11:35;;;;;;;12.70;8.63;;;12.80;99.90;;;;;;4999970;28;20088;-63
2023/05/16 04:14:01;;;;;;;14.68;9.55;;;12.90;99.90;;;;;;4995562;28;20042;-63
2023/05/16 04:16:26;;;;;;;11.20;7.95;;;12.80;99.90;;;;;;5000598;28;20034;-63
2023/05/16 04:18:52;;;;;;;11.18;8.13;;;12.80;99.90;;;;;;5001699;28;20042;-63
2023/05/16 04:21:18;;;;;;;14.43;8.75;;;12.80;99.90;;;;;;4993932;28;20045;-63
2023/05/16 04:23:44;;;;;;;11.13;7.50;;;12.80;99.90;;;;;;5000554;28;20030;-63
2023/05/16 04:26:10;;;;;;;12.30;7.32;;;12.80;99.90;;;;;;4997715;28;20180;-63
2023/05/16 04:28:36;;;;;;;9.63;6.90;;;12.90;99.90;;;;;;4995166;28;20065;-63
2023/05/16 04:31:01;;;;;;;10.18;7.10;;;12.90;99.90;;;;;;4999978;28;20133;-63
2023/05/16 04:33:27;;;;;;;9.00;6.70;;;12.90;99.90;;;;;;4996734;28;20042;-63
2023/05/16 04:35:57;;;;;;;10.23;7.03;;;12.90;99.90;;;;;;5006553;28;20125;-63
2023/05/16 04:38:23;;;;;;;15.48;8.00;;;12.90;99.90;;;;;;5005822;28;20510;-63
2023/05/16 04:40:52;;;;;;;15.07;7.07;;;13.00;99.90;;;;;;5008594;28;20130;-63
2023/05/16 04:43:18;;;;;;;11.85;7.18;;;12.90;99.90;;;;;;5002949;28;20037;-63
2023/05/16 04:45:44;;;;;;;10.25;6.63;;;13.00;99.90;;;;;;5006599;28;20401;-63
2023/05/16 04:48:11;;;;;;;10.82;6.60;;;13.00;99.90;;;;;;5000616;28;20041;-63
2023/05/16 04:50:36;;;;;;;10.70;6.93;;;13.00;99.90;;;;;;5005079;28;20028;-63
2023/05/16 04:53:02;;;;;;;12.10;6.40;;;13.00;99.90;;;;;;5008296;28;20402;-63
2023/05/16 04:55:28;;;;;;;12.00;6.95;;;13.00;99.90;;;;;;5005111;28;20556;-63
2023/05/16 04:57:54;;;;;;;9.60;6.63;;;13.00;99.90;;;;;;5008378;28;20464;-63
2023/05/16 05:00:20;;;;;;;12.18;6.63;;;13.00;99.90;;;;;;5005329;28;20137;-63
2023/05/16 05:02:46;;;;;;;9.20;6.05;;;13.00;99.90;;;;;;4999327;28;20147;-63
2023/05/16 05:05:11;;;;;;;12.45;6.97;;;13.10;99.90;;;;;;5006967;28;20042;-63
2023/05/16 05:07:37;;;;;;;11.90;7.70;;;13.10;99.90;;;;;;5005272;28;20041;-63
2023/05/16 05:10:04;;;;;;;15.98;9.18;;;13.10;99.90;;;;;;5009517;28;20480;-65
2023/05/16 05:12:29;;;;;;;13.70;9.07;;;13.10;99.90;;;;;;5009682;28;20040;-65
2023/05/16 05:14:55;;;;;;;16.80;9.27;;;13.10;99.90;;;;;;5008794;28;20129;-65
2023/05/16 05:17:22;;;;;;;10.40;7.93;;;13.10;99.90;;;;;;5007971;28;20027;-65
2023/05/16 05:19:48;;;;;;;15.95;8.30;;;13.00;99.90;;;;;;5009507;28;20679;-65
2023/05/16 05:22:14;;;;;;;14.02;8.35;;;13.10;99.90;;;;;;5005526;28;20026;-65
2023/05/16 05:24:40;;;;;;;10.48;7.40;;;13.10;99.90;;;;;;5009828;28;20029;-65
2023/05/16 05:27:05;;;;;;;12.10;8.07;;;13.10;99.90;;;;;;5009536;28;20038;-65
2023/05/16 05:29:31;;;;;;;9.88;7.63;;;13.10;99.90;;;;;;5009326;28;20045;-64
2023/05/16 05:31:57;;;;;;;11.43;7.68;;;13.20;99.90;;;;;;5006648;28;20034;-65
2023/05/16 05:34:22;;;;;;;12.55;8.45;;;13.20;99.90;;;;;;5008850;28;20038;-65
2023/05/16 05:36:48;;;;;;;14.00;8.07;;;13.30;99.90;;;;;;5009835;28;20109;-65
2023/05/16 05:39:14;;;;;;;12.20;8.40;;;13.30;99.90;;;;;;5008119;28;20058;-65
2023/05/16 05:41:40;;;;;;;11.48;8.15;;;13.40;99.90;;;;;;4997777;28;20037;-65
2023/05/16 05:44:05;;;;;;;12.02;8.70;;;13.40;99.90;;;;;;4999324;28;20034;-64
2023/05/16 05:46:32;;;;;;;11.20;7.53;;;13.40;99.90;;;;;;5009106;28;20029;-65
2023/05/16 05:48:59;;;;;;;14.40;8.48;;;13.50;99.90;;;;;;5005322;28;20501;-64
2023/05/16 05:51:25;;;;;;;12.55;8.02;;;13.60;99.90;;;;;;5006356;28;20041;-64
2023/05/16 05:53:51;;;;;;;10.25;7.38;;;13.60;99.90;;;;;;5010396;28;20029;-65
2023/05/16 05:56:17;;;;;;;12.43;7.88;;;13.60;99.90;;;;;;5005694;28;20045;-65
2023/05/16 05:58:44;;;;;;;11.82;7.90;;;13.60;99.90;;;;;;5002922;28;20033;-65
2023/05/16 06:01:11;;;;;;;10.07;7.60;;;13.60;99.90;;;;;;5002529;28;20034;-64
2023/05/16 06:03:37;;;;;;;11.23;7.18;;;13.60;99.90;;;;;;5005934;28;20109;-65
2023/05/16 06:06:03;;;;;;;9.93;7.65;;;13.60;99.90;;;;;;5005308;28;20053;-65
2023/05/16 06:08:29;;;;;;;10.10;7.70;;;13.60;99.90;;;;;;5005628;28;20109;-65
2023/05/16 06:10:55;;;;;;;11.07;7.03;;;13.60;99.90;;;;;;5012330;28;20647;-65
2023/05/16 06:13:20;;;;;;;12.27;7.22;;;13.60;99.90;;;;;;5010402;28;20750;-65
2023/05/16 06:15:53;;;;;;;11.07;7.80;;;13.50;99.90;;;;;;5005534;28;20084;-65
2023/05/16 06:18:19;;;;;;;13.57;8.43;;;13.60;99.90;;;;;;5005283;28;20033;-65
2023/05/16 06:20:45;;;;;;;9.60;6.50;;;13.60;99.90;;;;;;5003376;28;20029;-65
2023/05/16 06:23:11;;;;;;;12.48;7.55;;;13.60;99.90;;;;;;5005389;28;20044;-64
2023/05/16 06:25:37;;;;;;;10.55;7.57;;;13.60;99.90;;;;;;5010921;28;20038;-65
2023/05/16 06:28:03;;;;;;;11.57;7.90;;;13.70;99.90;;;;;;5001562;28;20034;-65
2023/05/16 06:30:29;;;;;;;10.68;7.63;;;13.70;99.90;;;;;;5004374;28;20034;-65
2023/05/16 06:32:54;;;;;;;12.80;7.93;;;13.70;99.90;;;;;;5005685;28;20041;-65
2023/05/16 06:35:20;;;;;;;9.73;7.22;;;13.60;99.90;;;;;;5001202;28;20034;-65
2023/05/16 06:37:46;;;;;;;10.05;7.70;;;13.60;99.90;;;;;;5004793;28;20061;-64
2023/05/16 06:40:12;;;;;;;12.60;9.45;;;13.60;99.90;;;;;;5005288;28;20030;-65
2023/05/16 06:42:38;;;;;;;11.18;8.30;;;13.60;99.90;;;;;;5005763;28;20038;-65
2023/05/16 06:45:04;;;;;;;11.10;8.02;;;13.70;99.90;;;;;;5001459;28;20060;-65
2023/05/16 06:47:30;;;;;;;9.90;8.18;;;13.70;99.90;;;;;;5005079;28;20144;-65
2023/05/16 06:49:56;;;;;;;10.50;7.43;;;13.70;99.90;;;;;;5005534;28;20125;-65
2023/05/16 06:52:22;;;;;;;9.65;8.43;;;13.70;99.90;;;;;;5000371;28;20497;-66
2023/05/16 06:54:47;;;;;;;10.65;8.55;;;13.80;99.90;;;;;;5008251;28;20532;-65
2023/05/16 06:57:13;;;;;;;14.75;10.20;;;13.90;99.90;;;;;;4995297;28;20598;-64
2023/05/16 06:59:39;;;;;;;15.57;10.48;;;14.00;99.70;;;;;;4994570;28;20054;-65
2023/05/16 07:02:05;;;;;;;22.02;13.80;;;14.00;99.20;;;;;;5003170;28;20048;-65
2023/05/16 07:04:31;;;;;;;15.68;10.98;;;14.00;99.20;;;;;;5004925;28;20033;-65
2023/05/16 07:06:57;;;;;;;10.07;8.25;;;14.00;99.50;;;;;;5005003;28;20045;-65
2023/05/16 07:09:23;;;;;;;12.55;9.32;;;14.00;99.50;;;;;;5003734;28;20040;-64
2023/05/16 07:11:49;;;;;;;12.13;8.68;;;14.00;99.50;;;;;;5005030;28;20413;-65
2023/05/16 07:14:15;;;;;;;8.02;7.20;;;14.10;99.40;;;;;;5004176;28;20056;-65
2023/05/16 07:16:40;;;;;;;7.45;6.32;;;14.20;99.50;;;;;;5004769;28;20068;-66
2023/05/16 07:19:07;;;;;;;7.07;6.03;;;14.20;99.00;;;;;;5005978;28;20025;-66
2023/05/16 07:21:33;;;;;;;7.72;5.50;;;14.20;99.20;;;;;;5013802;28;20128;-66
2023/05/16 07:23:58;;;;;;;9.40;4.70;;;14.20;99.10;;;;;;5005621;28;20136;-65
2023/05/16 07:26:25;;;;;;;5.85;4.38;;;14.20;98.20;;;;;;5005404;28;20552;-65
2023/05/16 07:28:51;;;;;;;5.93;4.55;;;14.20;98.30;;;;;;5013701;28;20049;-66
2023/05/16 07:31:17;;;;;;;7.78;3.88;;;14.10;98.50;;;;;;5017285;28;20038;-66
2023/05/16 07:33:45;;;;;;;3.95;3.55;;;14.10;98.80;;;;;;5006513;28;20034;-65
2023/05/16 07:36:12;;;;;;;9.50;6.18;;;14.10;98.50;;;;;;5004442;28;20030;-65
2023/05/16 07:38:38;;;;;;;8.23;5.18;;;14.10;98.80;;;;;;5001491;28;20038;-65
2023/05/16 07:41:03;;;;;;;5.43;3.55;;;14.10;99.10;;;;;;5001386;28;20456;-65
2023/05/16 07:43:29;;;;;;;6.72;3.83;;;14.10;98.90;;;;;;5005391;28;20044;-65
2023/05/16 07:45:55;;;;;;;4.82;3.03;;;14.20;98.90;;;;;;5005343;28;20037;-65
2023/05/16 07:48:21;;;;;;;6.60;3.65;;;14.20;98.70;;;;;;5003885;28;20050;-65
2023/05/16 07:50:46;;;;;;;3.28;2.90;;;14.30;98.60;;;;;;5003693;28;20073;-66
2023/05/16 07:53:13;;;;;;;4.53;2.75;;;14.30;98.50;;;;;;5006031;28;20065;-66
2023/05/16 07:55:39;;;;;;;5.90;3.00;;;14.40;98.50;;;;;;5009090;28;20493;-65
2023/05/16 07:58:05;;;;;;;4.22;2.80;;;14.40;98.00;;;;;;5011965;28;20046;-65
2023/05/16 08:00:31;;;;;;;3.47;2.50;;;14.40;98.00;;;;;;4996726;28;20117;-65
2023/05/16 08:02:57;;;;;;;6.28;2.65;;;14.40;97.50;;;;;;5004539;28;20116;-65
2023/05/16 08:05:23;;;;;;;3.35;2.00;;;14.40;97.40;;;;;;5005951;28;20141;-64
2023/05/16 08:07:48;;;;;;;4.65;2.47;;;14.40;97.40;;;;;;5005365;28;21715;-64
2023/05/16 08:10:14;;;;;;;5.18;2.53;;;14.40;97.00;;;;;;5012421;28;20610;-65
2023/05/16 08:12:40;;;;;;;4.90;2.08;;;14.30;97.30;;;;;;5007323;28;20063;-65
2023/05/16 08:15:07;;;;;;;3.85;2.42;;;14.30;97.70;;;;;;5003106;28;20069;-65
2023/05/16 08:17:33;;;;;;;3.58;2.00;;;14.40;97.50;;;;;;5007659;28;20049;-65
2023/05/16 08:20:00;;;;;;;2.80;2.30;;;14.40;97.60;;;;;;5005761;28;20840;-65
2023/05/16 08:22:26;;;;;;;3.70;2.50;;;14.50;97.30;;;;;;5003043;28;20030;-64
2023/05/16 08:24:56;;;;;;;4.50;2.22;;;14.50;97.20;;;;;;5001803;28;20105;-64
2023/05/16 08:27:23;;;;;;;2.58;1.80;;;14.40;97.10;;;;;;5001720;28;20514;-65
2023/05/16 08:29:49;;;;;;;3.85;2.30;;;14.40;97.50;;;;;;5005185;28;20380;-65
2023/05/16 08:32:15;;;;;;;4.95;2.08;;;14.50;97.50;;;;;;5001679;28;20041;-65
2023/05/16 08:34:41;;;;;;;2.75;1.70;;;14.50;97.50;;;;;;5004291;28;20032;-65
2023/05/16 08:37:07;;;;;;;3.28;1.95;;;14.50;97.40;;;;;;5005693;28;20026;-65
2023/05/16 08:39:33;;;;;;;2.67;2.20;;;14.50;97.50;;;;;;4996461;28;20084;-65
2023/05/16 08:41:59;;;;;;;2.25;1.90;;;14.50;97.70;;;;;;4986885;28;20041;-65
2023/05/16 08:44:26;;;;;;;5.40;2.15;;;14.50;97.60;;;;;;5001707;28;20480;-65
2023/05/16 08:46:53;;;;;;;5.63;2.88;;;14.50;97.60;;;;;;5004474;28;20761;-66
2023/05/16 08:49:20;;;;;;;5.72;2.40;;;14.50;97.80;;;;;;5004254;28;20034;-64
2023/05/16 08:51:47;;;;;;;3.55;2.47;;;14.50;97.30;;;;;;5001229;28;20065;-65
2023/05/16 08:54:14;;;;;;;2.85;2.17;;;14.50;97.90;;;;;;5000952;28;20121;-66
2023/05/16 08:56:43;;;;;;;3.40;2.60;;;14.50;97.60;;;;;;4991672;28;20022;-66
2023/05/16 08:59:11;;;;;;;7.85;3.00;;;14.50;97.60;;;;;;5002639;28;20033;-66
2023/05/16 09:01:37;;;;;;;3.80;2.20;;;14.50;97.50;;;;;;5000852;28;20026;-65
2023/05/16 09:04:05;;;;;;;4.97;2.25;;;14.50;97.40;;;;;;5000561;28;20034;-65
2023/05/16 09:06:31;;;;;;;7.68;2.75;;;14.50;97.40;;;;;;5002754;28;20042;-65
2023/05/16 09:08:57;;;;;;;8.10;3.42;;;14.60;97.50;;;;;;4989123;28;20026;-65
2023/05/16 09:11:23;;;;;;;4.80;2.55;;;14.70;97.40;;;;;;4994674;28;20083;-65
2023/05/16 09:13:49;;;;;;;2.83;2.03;;;14.80;97.30;;;;;;4999362;28;20701;-65
2023/05/16 09:16:19;;;;;;;3.92;2.00;;;14.80;97.40;;;;;;4999428;28;20030;-65
2023/05/16 09:18:56;;;;;;;4.60;2.30;;;14.80;97.10;;;;;;4996801;28;20030;-65
2023/05/16 09:21:28;;;;;;;6.03;1.88;;;14.80;97.40;;;;;;5000959;28;20037;-65
2023/05/16 09:23:54;;;;;;;3.70;2.03;;;14.80;97.30;;;;;;5004425;28;20076;-65
2023/05/16 09:26:21;;;;;;;3.13;2.00;;;14.90;97.40;;;;;;4998895;28;20042;-65
2023/05/16 09:28:47;;;;;;;3.55;1.90;;;14.90;97.10;;;;;;5007157;28;20038;-66
2023/05/16 09:31:25;;;;;;;4.68;2.03;;;14.80;97.00;;;;;;5007530;28;20268;-66
2023/05/16 09:33:57;;;;;;;9.32;2.65;;;14.80;96.90;;;;;;5003160;28;20561;-68
2023/05/16 09:36:24;;;;;;;6.57;1.98;;;14.70;96.20;;;;;;5003276;28;20034;-66
2023/05/16 09:38:51;;;;;;;9.35;2.03;;;14.70;96.40;;;;;;5004530;28;20518;-67
2023/05/16 09:41:17;;;;;;;2.25;1.63;;;14.70;96.80;;;;;;5004287;28;20103;-66
2023/05/16 09:43:44;;;;;;;3.63;1.33;;;14.70;96.90;;;;;;5006546;28;20812;-68
2023/05/16 09:46:14;;;;;;;5.00;2.10;;;14.60;97.00;;;;;;4997989;28;20093;-66
2023/05/16 09:48:43;;;;;;;6.03;2.60;;;14.60;97.00;;;;;;5002803;28;20108;-67
2023/05/16 09:51:11;;;;;;;6.80;1.90;;;14.60;97.10;;;;;;5002688;28;20026;-66
2023/05/16 09:53:37;;;;;;;4.50;1.55;;;14.70;96.70;;;;;;5003194;28;20087;-66
2023/05/16 09:56:06;;;;;;;5.53;1.95;;;14.60;96.30;;;;;;4995079;28;20038;-66
2023/05/16 09:58:34;;;;;;;5.57;1.85;;;14.70;96.50;;;;;;5002774;28;20029;-64
2023/05/16 10:01:01;;;;;;;3.75;1.73;;;14.90;96.20;;;;;;5004795;28;20060;-64
2023/05/16 10:03:27;;;;;;;10.60;2.35;;;15.00;95.90;;;;;;5001357;28;20053;-64
2023/05/16 10:05:54;;;;;;;9.00;2.08;;;15.20;95.00;;;;;;5004069;28;20155;-64
2023/05/16 10:08:22;;;;;;;6.50;1.88;;;15.30;95.30;;;;;;4998274;28;20039;-64
2023/05/16 10:10:55;;;;;;;6.32;1.67;;;15.40;94.60;;;;;;4998030;28;20041;-64
2023/05/16 10:13:27;;;;;;;15.00;2.63;;;15.50;94.70;;;;;;5002547;28;20398;-64
2023/05/16 10:15:56;;;;;;;5.43;2.25;;;15.50;94.20;;;;;;5003607;28;20034;-64
2023/05/16 10:18:27;;;;;;;12.10;2.53;;;15.60;94.30;;;;;;4999401;28;20030;-63
2023/05/16 10:20:55;;;;;;;7.45;2.15;;;15.80;93.90;;;;;;5002720;28;20108;-63
2023/05/16 10:23:25;;;;;;;7.80;1.65;;;15.90;93.50;;;;;;4998359;28;20046;-64
2023/05/16 10:25:51;;;;;;;6.85;1.33;;;15.90;92.80;;;;;;4997355;28;20038;-64
2023/05/16 10:28:17;;;;;;;6.38;1.48;;;15.80;92.80;;;;;;5001419;28;20038;-64
2023/05/16 10:30:45;;;;;;;5.97;1.55;;;15.80;92.80;;;;;;5002483;28;20041;-63
2023/05/16 10:33:15;;;;;;;9.35;1.38;;;15.80;91.80;;;;;;4996499;28;20030;-64
2023/05/16 10:35:42;;;;;;;10.85;2.15;;;15.70;91.90;;;;;;5001272;28;20096;-63
2023/05/16 10:38:10;;;;;;;7.18;2.40;;;15.60;91.50;;;;;;4999499;28;20041;-64
2023/05/16 10:40:37;;;;;;;11.93;1.83;;;15.60;92.10;;;;;;5003917;28;20038;-64
2023/05/16 10:43:05;;;;;;;9.90;2.13;;;15.60;92.40;;;;;;4999611;28;20048;-63
2023/05/16 10:45:31;;;;;;;8.48;1.85;;;15.60;91.60;;;;;;4998080;28;20561;-63
2023/05/16 10:47:59;;;;;;;6.22;2.33;;;15.50;92.10;;;;;;5001778;28;20038;-63
2023/05/16 10:50:41;;;;;;;8.60;1.80;;;15.50;92.10;;;;;;5002363;28;20038;-63
2023/05/16 10:53:19;;;;;;;6.38;1.40;;;15.50;92.20;;;;;;4997113;28;20720;-64
2023/05/16 10:55:50;;;;;;;6.40;1.60;;;15.50;92.30;;;;;;5006659;28;20048;-64
2023/05/16 10:58:39;;;;;;;8.13;1.50;;;15.50;92.60;;;;;;5002740;28;20034;-64
2023/05/16 11:01:32;;;;;;;5.40;1.58;;;15.50;91.60;;;;;;5004547;28;20034;-63
2023/05/16 11:03:58;;;;;;;10.23;2.03;;;15.40;91.20;;;;;;5006966;28;20041;-64
2023/05/16 11:06:27;;;;;;;6.00;2.00;;;15.30;91.70;;;;;;5000716;28;20046;-64
2023/05/16 11:09:08;;;;;;;8.82;1.38;;;15.30;91.80;;;;;;4997570;28;20049;-64
2023/05/16 11:12:02;;;;;;;7.10;1.92;;;15.30;92.20;;;;;;4993828;28;20078;-64
2023/05/16 11:14:31;;;;;;;13.77;1.70;;;15.30;91.60;;;;;;4982177;28;20521;-64
2023/05/16 11:17:05;;;;;;;8.45;1.60;;;15.30;91.90;;;;;;4999510;28;20095;-66
2023/05/16 11:19:31;;;;;;;10.32;1.80;;;15.30;92.20;;;;;;5002627;28;20056;-63
2023/05/16 11:22:19;;;;;;;10.90;1.50;;;15.40;92.10;;;;;;4998516;28;20120;-63
2023/05/16 11:24:53;;;;;;;8.55;1.90;;;15.40;91.70;;;;;;4997020;28;20642;-64
2023/05/16 11:27:30;;;;;;;9.30;1.73;;;15.50;91.70;;;;;;4996779;28;20038;-63
2023/05/16 11:30:16;;;;;;;9.63;1.67;;;15.60;91.80;;;;;;4996492;28;20041;-64
2023/05/16 11:32:44;;;;;;;7.97;1.58;;;15.80;91.50;;;;;;5000660;28;20052;-63
2023/05/16 11:35:15;;;;;;;5.93;1.75;;;15.90;91.00;;;;;;4996473;28;20169;-63
2023/05/16 11:37:42;;;;;;;9.82;2.17;;;16.10;91.10;;;;;;4999664;28;20758;-63
2023/05/16 11:40:11;;;;;;;8.20;1.67;;;16.20;90.90;;;;;;5001878;28;20553;-63
2023/05/16 11:42:42;;;;;;;9.18;2.13;;;16.40;90.00;;;;;;4995910;28;20104;-63
2023/05/16 11:45:20;;;;;;;10.88;2.13;;;16.50;90.20;;;;;;5000486;28;20038;-65
2023/05/16 11:47:47;;;;;;;12.75;1.90;;;16.70;88.70;;;;;;4998762;28;20025;-66
2023/05/16 11:50:15;;;;;;;10.43;2.33;;;16.80;88.20;;;;;;5003750;28;20476;-66
2023/05/16 11:52:52;;;;;;;12.20;2.60;;;17.00;87.40;;;;;;5004803;28;20037;-66
2023/05/16 11:55:23;;;;;;;8.68;2.10;;;17.20;83.80;;;;;;5004969;28;20038;-67
2023/05/16 11:57:52;;;;;;;13.05;1.85;;;17.40;84.00;;;;;;4995898;28;20057;-67
2023/05/16 12:00:21;;;;;;;6.63;1.52;;;17.50;82.70;;;;;;5000198;28;20030;-67
2023/05/16 12:02:48;;;;;;;5.60;1.60;;;17.40;81.60;;;;;;4983195;28;20697;-67
2023/05/16 12:05:15;;;;;;;7.90;2.00;;;17.40;82.80;;;;;;4995877;28;20034;-66
2023/05/16 12:07:45;;;;;;;8.50;1.63;;;17.60;84.20;;;;;;5003485;28;20398;-66
2023/05/16 12:10:13;;;;;;;7.88;1.70;;;17.70;82.40;;;;;;5000723;28;20042;-65
2023/05/16 12:12:41;;;;;;;7.88;1.88;;;17.80;80.80;;;;;;4999728;28;20508;-66
2023/05/16 12:15:09;;;;;;;7.57;1.95;;;17.90;79.50;;;;;;5000579;28;20595;-67
2023/05/16 12:17:39;;;;;;;7.38;1.73;;;18.00;77.90;;;;;;4998300;28;20672;-65
2023/05/16 12:20:10;;;;;;;7.38;1.80;;;18.10;75.70;;;;;;4999654;28;20928;-66
2023/05/16 12:22:47;;;;;;;7.32;1.70;;;18.20;76.90;;;;;;4999079;28;20025;-66
2023/05/16 12:25:28;;;;;;;7.97;1.73;;;18.30;75.80;;;;;;5000324;28;20084;-67
2023/05/16 12:27:56;;;;;;;10.07;1.40;;;18.30;71.50;;;;;;4999145;28;20121;-65
2023/05/16 12:30:23;;;;;;;7.30;2.03;;;18.40;72.40;;;;;;5003848;28;20071;-68
2023/05/16 12:33:10;;;;;;;7.72;1.55;;;18.60;74.60;;;;;;5004130;28;20880;-68
2023/05/16 12:35:41;;;;;;;5.40;1.45;;;18.70;69.60;;;;;;4996185;28;20037;-67
2023/05/16 12:38:11;;;;;;;5.30;1.52;;;18.70;70.40;;;;;;5003819;28;20026;-68
2023/05/16 12:40:38;;;;;;;5.90;1.50;;;18.60;70.00;;;;;;5000179;28;20030;-68
2023/05/16 12:43:20;;;;;;;6.93;1.52;;;18.70;70.90;;;;;;5004589;28;20040;-68
2023/05/16 12:45:54;;;;;;;5.88;1.35;;;18.70;69.10;;;;;;5008630;28;20412;-67